createdAt,value
2017-02-18T00:00:18.810Z,1037.17
2017-02-18T00:01:18.803Z,1037.14
2017-02-18T00:02:18.790Z,1037.16
2017-02-18T00:03:18.782Z,1037.15
2017-02-18T00:04:18.770Z,1037.14
2017-02-18T00:05:18.763Z,1037.13
2017-02-18T00:06:18.747Z,1037.11
2017-02-18T00:07:18.739Z,1037.13
2017-02-18T00:08:18.728Z,1037.13
2017-02-18T00:09:18.720Z,1037.15
2017-02-18T00:10:18.707Z,1037.2
2017-02-18T00:11:18.697Z,1037.22
2017-02-18T00:12:18.687Z,1037.22
2017-02-18T00:13:18.675Z,1037.22
2017-02-18T00:14:18.667Z,1037.26
2017-02-18T00:15:18.655Z,1037.24
2017-02-18T00:16:18.646Z,1037.27
2017-02-18T00:17:18.635Z,1037.35
2017-02-18T00:18:18.623Z,1037.34
2017-02-18T00:19:18.614Z,1037.39
2017-02-18T00:20:18.604Z,1037.34
2017-02-18T00:21:18.594Z,1037.39
2017-02-18T00:22:18.582Z,1037.38
2017-02-18T00:23:18.570Z,1037.37
2017-02-18T00:24:18.562Z,1037.35
2017-02-18T00:25:18.551Z,1037.36
2017-02-18T00:26:18.539Z,1037.39
2017-02-18T00:27:18.530Z,1037.36
2017-02-18T00:28:18.519Z,1037.39
2017-02-18T00:29:18.509Z,1037.37
2017-02-18T00:30:18.499Z,1037.33
2017-02-18T00:31:18.488Z,1037.33
2017-02-18T00:32:18.477Z,1037.31
2017-02-18T00:33:18.471Z,1037.38
2017-02-18T00:34:18.457Z,1037.31
2017-02-18T00:35:18.443Z,1037.33
2017-02-18T00:36:18.436Z,1037.32
2017-02-18T00:37:18.422Z,1037.29
2017-02-18T00:38:18.411Z,1037.27
2017-02-18T00:39:18.403Z,1037.33
2017-02-18T00:40:18.393Z,1037.32
2017-02-18T00:41:18.398Z,1037.33
2017-02-18T00:42:18.368Z,1037.34
2017-02-18T00:43:18.359Z,1037.32
2017-02-18T00:44:18.349Z,1037.34
2017-02-18T00:45:18.337Z,1037.35
2017-02-18T00:46:18.329Z,1037.36
2017-02-18T00:47:18.316Z,1037.37
2017-02-18T00:48:18.305Z,1037.36
2017-02-18T00:49:18.296Z,1037.37
2017-02-18T00:50:18.287Z,1037.31
2017-02-18T00:51:18.274Z,1037.32
2017-02-18T00:52:18.264Z,1037.34
2017-02-18T00:53:18.254Z,1037.32
2017-02-18T00:54:18.241Z,1037.28
2017-02-18T00:55:18.244Z,1037.31
2017-02-18T00:56:18.222Z,1037.29
2017-02-18T00:57:18.212Z,1037.29
2017-02-18T00:58:18.201Z,1037.32
2017-02-18T00:59:18.191Z,1037.32
2017-02-18T01:00:18.175Z,1037.35
2017-02-18T01:01:18.167Z,1037.3
2017-02-18T01:02:18.159Z,1037.32
2017-02-18T01:03:18.149Z,1037.26
2017-02-18T01:04:18.136Z,1037.28
2017-02-18T01:05:18.123Z,1037.26
2017-02-18T01:06:18.114Z,1037.28
2017-02-18T01:07:18.107Z,1037.29
2017-02-18T01:08:18.095Z,1037.26
2017-02-18T01:09:18.085Z,1037.24
2017-02-18T01:10:18.072Z,1037.25
2017-02-18T01:11:18.060Z,1037.24
2017-02-18T01:12:18.051Z,1037.22
2017-02-18T01:13:18.042Z,1037.27
2017-02-18T01:14:18.030Z,1037.29
2017-02-18T01:15:18.020Z,1037.28
2017-02-18T01:16:18.010Z,1037.31
2017-02-18T01:17:17.999Z,1037.36
2017-02-18T01:18:17.990Z,1037.37
2017-02-18T01:19:17.976Z,1037.38
2017-02-18T01:20:17.967Z,1037.42
2017-02-18T01:21:17.957Z,1037.4
2017-02-18T01:22:17.946Z,1037.42
2017-02-18T01:23:17.935Z,1037.45
2017-02-18T01:24:17.923Z,1037.42
2017-02-18T01:25:17.913Z,1037.41
2017-02-18T01:26:17.901Z,1037.42
2017-02-18T01:27:17.893Z,1037.38
2017-02-18T01:28:17.880Z,1037.38
2017-02-18T01:29:17.868Z,1037.4
2017-02-18T01:30:17.860Z,1037.38
2017-02-18T01:31:17.852Z,1037.39
2017-02-18T01:32:17.840Z,1037.39
2017-02-18T01:33:17.827Z,1037.38
2017-02-18T01:34:17.816Z,1037.42
2017-02-18T01:35:17.813Z,1037.4
2017-02-18T01:36:17.794Z,1037.41
2017-02-18T01:37:17.784Z,1037.38
2017-02-18T01:38:17.773Z,1037.37
2017-02-18T01:39:17.763Z,1037.39
2017-02-18T01:40:17.753Z,1037.39
2017-02-18T01:41:17.744Z,1037.39
2017-02-18T01:42:17.733Z,1037.39
2017-02-18T01:43:17.721Z,1037.38
2017-02-18T01:44:17.709Z,1037.42
2017-02-18T01:45:17.700Z,1037.4
2017-02-18T01:46:17.689Z,1037.44
2017-02-18T01:47:17.681Z,1037.44
2017-02-18T01:48:17.669Z,1037.39
2017-02-18T01:49:17.659Z,1037.44
2017-02-18T01:50:17.648Z,1037.48
2017-02-18T01:51:17.686Z,1037.53
2017-02-18T01:52:17.627Z,1037.49
2017-02-18T01:53:17.615Z,1037.55
2017-02-18T01:54:17.605Z,1037.53
2017-02-18T01:55:17.592Z,1037.55
2017-02-18T01:56:17.581Z,1037.53
2017-02-18T01:57:17.570Z,1037.51
2017-02-18T01:58:17.564Z,1037.54
2017-02-18T01:59:17.549Z,1037.48
2017-02-18T02:00:17.541Z,1037.5
2017-02-18T02:01:17.530Z,1037.48
2017-02-18T02:02:17.518Z,1037.46
2017-02-18T02:03:17.508Z,1037.45
2017-02-18T02:04:17.497Z,1037.42
2017-02-18T02:05:17.489Z,1037.43
2017-02-18T02:06:17.472Z,1037.39
2017-02-18T02:07:17.463Z,1037.35
2017-02-18T02:08:17.458Z,1037.36
2017-02-18T02:09:17.445Z,1037.33
2017-02-18T02:10:17.433Z,1037.35
2017-02-18T02:11:17.420Z,1037.34
2017-02-18T02:12:17.412Z,1037.35
2017-02-18T02:13:17.400Z,1037.36
2017-02-18T02:14:17.388Z,1037.37
2017-02-18T02:15:17.379Z,1037.37
2017-02-18T02:16:17.369Z,1037.36
2017-02-18T02:17:17.358Z,1037.38
2017-02-18T02:18:17.345Z,1037.33
2017-02-18T02:19:17.336Z,1037.36
2017-02-18T02:20:17.323Z,1037.37
2017-02-18T02:21:17.314Z,1037.39
2017-02-18T02:22:17.304Z,1037.37
2017-02-18T02:23:17.289Z,1037.4
2017-02-18T02:24:17.283Z,1037.41
2017-02-18T02:25:17.272Z,1037.42
2017-02-18T02:26:17.259Z,1037.41
2017-02-18T02:27:17.248Z,1037.39
2017-02-18T02:28:17.240Z,1037.41
2017-02-18T02:29:17.228Z,1037.44
2017-02-18T02:30:17.219Z,1037.42
2017-02-18T02:31:17.208Z,1037.44
2017-02-18T02:32:17.197Z,1037.41
2017-02-18T02:33:17.191Z,1037.4
2017-02-18T02:34:17.474Z,1037.41
2017-02-18T02:35:17.164Z,1037.46
2017-02-18T02:36:17.151Z,1037.47
2017-02-18T02:37:17.343Z,1037.4
2017-02-18T02:38:17.132Z,1037.42
2017-02-18T02:39:17.121Z,1037.43
2017-02-18T02:40:17.109Z,1037.4
2017-02-18T02:41:17.102Z,1037.37
2017-02-18T02:42:17.086Z,1037.34
2017-02-18T02:43:17.078Z,1037.34
2017-02-18T02:44:17.067Z,1037.31
2017-02-18T02:45:17.057Z,1037.32
2017-02-18T02:46:17.043Z,1037.3
2017-02-18T02:47:17.033Z,1037.31
2017-02-18T02:48:17.024Z,1037.29
2017-02-18T02:49:17.013Z,1037.3
2017-02-18T02:50:17.002Z,1037.27
2017-02-18T02:51:16.990Z,1037.3
2017-02-18T02:52:16.982Z,1037.38
2017-02-18T02:53:16.971Z,1037.33
2017-02-18T02:54:16.959Z,1037.36
2017-02-18T02:55:16.948Z,1037.38
2017-02-18T02:56:16.936Z,1037.36
2017-02-18T02:57:16.925Z,1037.35
2017-02-18T02:58:16.915Z,1037.35
2017-02-18T02:59:16.904Z,1037.41
2017-02-18T03:00:16.894Z,1037.39
2017-02-18T03:01:16.883Z,1037.42
2017-02-18T03:02:16.875Z,1037.41
2017-02-18T03:03:16.863Z,1037.45
2017-02-18T03:04:16.853Z,1037.43
2017-02-18T03:05:16.839Z,1037.52
2017-02-18T03:06:16.831Z,1037.57
2017-02-18T03:07:16.820Z,1037.53
2017-02-18T03:08:16.806Z,1037.54
2017-02-18T03:09:16.796Z,1037.54
2017-02-18T03:10:16.785Z,1037.53
2017-02-18T03:11:16.777Z,1037.55
2017-02-18T03:12:16.764Z,1037.54
2017-02-18T03:13:16.753Z,1037.57
2017-02-18T03:14:16.744Z,1037.54
2017-02-18T03:15:16.731Z,1037.6
2017-02-18T03:16:16.723Z,1037.64
2017-02-18T03:17:16.710Z,1037.68
2017-02-18T03:18:16.703Z,1037.65
2017-02-18T03:19:16.689Z,1037.68
2017-02-18T03:20:16.678Z,1037.68
2017-02-18T03:21:16.669Z,1037.72
2017-02-18T03:22:16.659Z,1037.68
2017-02-18T03:23:16.647Z,1037.73
2017-02-18T03:24:16.638Z,1037.69
2017-02-18T03:25:16.627Z,1037.72
2017-02-18T03:26:16.613Z,1037.69
2017-02-18T03:27:16.605Z,1037.73
2017-02-18T03:28:16.592Z,1037.74
2017-02-18T03:29:16.583Z,1037.74
2017-02-18T03:30:16.572Z,1037.74
2017-02-18T03:31:16.561Z,1037.71
2017-02-18T03:32:16.549Z,1037.73
2017-02-18T03:33:16.540Z,1037.76
2017-02-18T03:34:16.526Z,1037.77
2017-02-18T03:35:16.514Z,1037.82
2017-02-18T03:36:16.510Z,1037.83
2017-02-18T03:37:16.494Z,1037.8
2017-02-18T03:38:16.486Z,1037.88
2017-02-18T03:39:16.476Z,1037.93
2017-02-18T03:40:16.464Z,1037.98
2017-02-18T03:41:16.451Z,1037.97
2017-02-18T03:42:16.440Z,1037.96
2017-02-18T03:43:16.430Z,1038.03
2017-02-18T03:44:16.419Z,1038.09
2017-02-18T03:45:16.407Z,1038.14
2017-02-18T03:46:16.396Z,1038.16
2017-02-18T03:47:16.385Z,1038.13
2017-02-18T03:48:16.375Z,1038.1
2017-02-18T03:49:16.362Z,1038.09
2017-02-18T03:50:16.354Z,1038.05
2017-02-18T03:51:16.344Z,1038.02
2017-02-18T03:52:16.330Z,1037.99
2017-02-18T03:53:16.319Z,1037.97
2017-02-18T03:54:16.312Z,1037.98
2017-02-18T03:55:16.302Z,1037.95
2017-02-18T03:56:16.290Z,1038.01
2017-02-18T03:57:16.279Z,1038.05
2017-02-18T03:58:16.268Z,1038.01
2017-02-18T03:59:16.255Z,1038.08
2017-02-18T04:00:16.246Z,1038.02
2017-02-18T04:01:16.237Z,1037.98
2017-02-18T04:02:16.225Z,1037.94
2017-02-18T04:03:16.212Z,1038.06
2017-02-18T04:04:16.203Z,1038.11
2017-02-18T04:05:16.192Z,1038.11
2017-02-18T04:06:16.181Z,1038.1
2017-02-18T04:07:16.170Z,1038.13
2017-02-18T04:08:16.157Z,1038.1
2017-02-18T04:09:16.202Z,1038.08
2017-02-18T04:10:16.134Z,1038.1
2017-02-18T04:11:16.126Z,1038.09
2017-02-18T04:12:16.113Z,1038.04
2017-02-18T04:13:16.106Z,1038.04
2017-02-18T04:14:16.093Z,1038.02
2017-02-18T04:15:16.083Z,1038.03
2017-02-18T04:16:16.072Z,1038.02
2017-02-18T04:17:16.061Z,1038.03
2017-02-18T04:18:16.047Z,1038.01
2017-02-18T04:19:16.039Z,1038.08
2017-02-18T04:20:16.029Z,1038.09
2017-02-18T04:21:16.015Z,1038.17
2017-02-18T04:22:16.004Z,1038.21
2017-02-18T04:23:15.993Z,1038.23
2017-02-18T04:24:15.983Z,1038.22
2017-02-18T04:25:15.969Z,1038.18
2017-02-18T04:26:15.965Z,1038.18
2017-02-18T04:27:15.949Z,1038.22
2017-02-18T04:28:15.940Z,1038.19
2017-02-18T04:29:15.945Z,1038.19
2017-02-18T04:30:15.919Z,1038.16
2017-02-18T04:31:15.908Z,1038.16
2017-02-18T04:32:15.894Z,1038.18
2017-02-18T04:33:15.885Z,1038.21
2017-02-18T04:34:15.872Z,1038.3
2017-02-18T04:35:15.862Z,1038.3
2017-02-18T04:36:15.853Z,1038.31
2017-02-18T04:37:15.844Z,1038.33
2017-02-18T04:38:15.833Z,1038.33
2017-02-18T04:39:15.822Z,1038.35
2017-02-18T04:40:15.809Z,1038.34
2017-02-18T04:41:15.799Z,1038.35
2017-02-18T04:42:15.790Z,1038.4
2017-02-18T04:43:15.777Z,1038.39
2017-02-18T04:44:15.766Z,1038.39
2017-02-18T04:45:15.755Z,1038.39
2017-02-18T04:46:15.741Z,1038.41
2017-02-18T04:47:15.731Z,1038.44
2017-02-18T04:48:15.720Z,1038.46
2017-02-18T04:49:15.714Z,1038.46
2017-02-18T04:50:15.702Z,1038.44
2017-02-18T04:51:15.689Z,1038.47
2017-02-18T04:52:15.679Z,1038.45
2017-02-18T04:53:15.670Z,1038.46
2017-02-18T04:54:15.657Z,1038.49
2017-02-18T04:55:15.648Z,1038.56
2017-02-18T04:56:15.634Z,1038.58
2017-02-18T04:57:15.624Z,1038.62
2017-02-18T04:58:15.614Z,1038.67
2017-02-18T04:59:15.602Z,1038.7
2017-02-18T05:00:15.590Z,1038.68
2017-02-18T05:01:15.579Z,1038.66
2017-02-18T05:02:15.569Z,1038.72
2017-02-18T05:03:15.560Z,1038.67
2017-02-18T05:04:15.547Z,1038.66
2017-02-18T05:05:15.537Z,1038.66
2017-02-18T05:06:15.524Z,1038.66
2017-02-18T05:07:15.514Z,1038.67
2017-02-18T05:08:15.501Z,1038.66
2017-02-18T05:09:15.489Z,1038.68
2017-02-18T05:10:15.479Z,1038.69
2017-02-18T05:11:15.473Z,1038.65
2017-02-18T05:12:15.462Z,1038.67
2017-02-18T05:13:15.450Z,1038.65
2017-02-18T05:14:15.434Z,1038.69
2017-02-18T05:15:15.427Z,1038.7
2017-02-18T05:16:15.414Z,1038.67
2017-02-18T05:17:15.402Z,1038.69
2017-02-18T05:18:15.394Z,1038.73
2017-02-18T05:19:15.383Z,1038.75
2017-02-18T05:20:15.371Z,1038.76
2017-02-18T05:21:15.360Z,1038.79
2017-02-18T05:22:15.350Z,1038.75
2017-02-18T05:23:15.337Z,1038.76
2017-02-18T05:24:15.327Z,1038.77
2017-02-18T05:25:15.316Z,1038.76
2017-02-18T05:26:15.305Z,1038.75
2017-02-18T05:27:15.294Z,1038.74
2017-02-18T05:28:15.283Z,1038.76
2017-02-18T05:29:15.272Z,1038.77
2017-02-18T05:30:15.262Z,1038.78
2017-02-18T05:31:15.250Z,1038.77
2017-02-18T05:32:15.237Z,1038.76
2017-02-18T05:33:15.286Z,1038.74
2017-02-18T05:34:15.214Z,1038.72
2017-02-18T05:35:15.203Z,1038.76
2017-02-18T05:36:15.195Z,1038.77
2017-02-18T05:37:15.181Z,1038.75
2017-02-18T05:38:15.172Z,1038.81
2017-02-18T05:39:15.161Z,1038.83
2017-02-18T05:40:15.151Z,1038.83
2017-02-18T05:41:15.137Z,1038.84
2017-02-18T05:42:15.128Z,1038.83
2017-02-18T05:43:15.118Z,1038.85
2017-02-18T05:44:15.108Z,1038.82
2017-02-18T05:45:15.095Z,1038.79
2017-02-18T05:46:15.082Z,1038.8
2017-02-18T05:47:15.074Z,1038.84
2017-02-18T05:48:15.062Z,1038.82
2017-02-18T05:49:15.050Z,1038.77
2017-02-18T05:50:15.039Z,1038.78
2017-02-18T05:51:15.027Z,1038.81
2017-02-18T05:52:15.018Z,1038.82
2017-02-18T05:53:15.004Z,1038.81
2017-02-18T05:54:14.993Z,1038.8
2017-02-18T05:55:14.982Z,1038.74
2017-02-18T05:56:14.971Z,1038.71
2017-02-18T05:57:14.960Z,1038.72
2017-02-18T05:58:14.951Z,1038.72
2017-02-18T05:59:14.939Z,1038.73
2017-02-18T06:00:14.929Z,1038.7
2017-02-18T06:01:14.916Z,1038.68
2017-02-18T06:02:14.906Z,1038.66
2017-02-18T06:03:14.893Z,1038.67
2017-02-18T06:04:14.883Z,1038.67
2017-02-18T06:05:14.872Z,1038.69
2017-02-18T06:06:14.862Z,1038.7
2017-02-18T06:07:14.852Z,1038.7
2017-02-18T06:08:14.844Z,1038.73
2017-02-18T06:09:14.829Z,1038.71
2017-02-18T06:10:14.817Z,1038.73
2017-02-18T06:11:14.805Z,1038.77
2017-02-18T06:12:14.795Z,1038.78
2017-02-18T06:13:14.781Z,1038.83
2017-02-18T06:14:14.772Z,1038.84
2017-02-18T06:15:14.762Z,1038.87
2017-02-18T06:16:14.752Z,1038.9
2017-02-18T06:17:14.739Z,1038.92
2017-02-18T06:18:14.729Z,1038.92
2017-02-18T06:19:14.718Z,1038.95
2017-02-18T06:20:14.704Z,1038.94
2017-02-18T06:21:14.697Z,1038.94
2017-02-18T06:22:14.685Z,1038.97
2017-02-18T06:23:14.674Z,1038.97
2017-02-18T06:24:14.659Z,1038.94
2017-02-18T06:25:14.650Z,1038.99
2017-02-18T06:26:14.639Z,1038.95
2017-02-18T06:27:14.631Z,1038.94
2017-02-18T06:28:14.619Z,1038.89
2017-02-18T06:29:14.606Z,1038.89
2017-02-18T06:30:14.596Z,1038.87
2017-02-18T06:31:14.584Z,1038.83
2017-02-18T06:32:14.576Z,1038.81
2017-02-18T06:33:14.564Z,1038.8
2017-02-18T06:34:14.553Z,1038.81
2017-02-18T06:35:14.543Z,1038.81
2017-02-18T06:36:14.531Z,1038.82
2017-02-18T06:37:14.520Z,1038.78
2017-02-18T06:38:14.507Z,1038.81
2017-02-18T06:39:14.495Z,1038.8
2017-02-18T06:40:14.485Z,1038.82
2017-02-18T06:41:14.476Z,1038.8
2017-02-18T06:42:14.462Z,1038.78
2017-02-18T06:43:14.456Z,1038.75
2017-02-18T06:44:14.440Z,1038.75
2017-02-18T06:45:14.429Z,1038.74
2017-02-18T06:46:14.418Z,1038.74
2017-02-18T06:47:14.408Z,1038.7
2017-02-18T06:48:14.399Z,1038.73
2017-02-18T06:49:14.387Z,1038.73
2017-02-18T06:50:14.376Z,1038.7
2017-02-18T06:51:14.364Z,1038.67
2017-02-18T06:52:14.352Z,1038.67
2017-02-18T06:53:14.344Z,1038.7
2017-02-18T06:54:14.332Z,1038.7
2017-02-18T06:55:14.318Z,1038.69
2017-02-18T06:56:14.310Z,1038.68
2017-02-18T06:57:14.300Z,1038.7
2017-02-18T06:58:14.285Z,1038.73
2017-02-18T06:59:14.275Z,1038.73
2017-02-18T07:00:14.263Z,1038.76
2017-02-18T07:01:14.251Z,1038.78
2017-02-18T07:02:14.239Z,1038.79
2017-02-18T07:03:14.232Z,1038.82
2017-02-18T07:04:14.219Z,1038.79
2017-02-18T07:05:14.208Z,1038.72
2017-02-18T07:06:14.200Z,1038.7
2017-02-18T07:07:14.186Z,1038.7
2017-02-18T07:08:14.178Z,1038.7
2017-02-18T07:09:14.164Z,1038.68
2017-02-18T07:10:14.154Z,1038.64
2017-02-18T07:11:14.143Z,1038.64
2017-02-18T07:12:14.131Z,1038.63
2017-02-18T07:13:14.120Z,1038.62
2017-02-18T07:14:14.110Z,1038.64
2017-02-18T07:15:14.101Z,1038.6
2017-02-18T07:16:14.089Z,1038.53
2017-02-18T07:17:14.080Z,1038.55
2017-02-18T07:18:14.068Z,1038.53
2017-02-18T07:19:14.058Z,1038.59
2017-02-18T07:20:14.044Z,1038.6
2017-02-18T07:21:14.033Z,1038.59
2017-02-18T07:22:14.025Z,1038.56
2017-02-18T07:23:14.012Z,1038.57
2017-02-18T07:24:14.002Z,1038.55
2017-02-18T07:25:13.990Z,1038.56
2017-02-18T07:26:13.982Z,1038.52
2017-02-18T07:27:13.967Z,1038.55
2017-02-18T07:28:13.956Z,1038.53
2017-02-18T07:29:13.948Z,1038.51
2017-02-18T07:30:13.937Z,1038.48
2017-02-18T07:31:13.926Z,1038.47
2017-02-18T07:32:13.914Z,1038.46
2017-02-18T07:33:13.902Z,1038.51
2017-02-18T07:34:13.892Z,1038.49
2017-02-18T07:35:13.884Z,1038.51
2017-02-18T07:36:13.871Z,1038.48
2017-02-18T07:37:13.862Z,1038.51
2017-02-18T07:38:13.851Z,1038.52
2017-02-18T07:39:13.841Z,1038.56
2017-02-18T07:40:13.826Z,1038.51
2017-02-18T07:41:13.820Z,1038.49
2017-02-18T07:42:13.807Z,1038.53
2017-02-18T07:43:13.799Z,1038.48
2017-02-18T07:44:13.786Z,1038.47
2017-02-18T07:45:13.776Z,1038.45
2017-02-18T07:46:13.766Z,1038.47
2017-02-18T07:47:13.753Z,1038.45
2017-02-18T07:48:13.743Z,1038.5
2017-02-18T07:49:13.731Z,1038.52
2017-02-18T07:50:13.721Z,1038.57
2017-02-18T07:51:13.712Z,1038.53
2017-02-18T07:52:13.702Z,1038.52
2017-02-18T07:53:13.688Z,1038.58
2017-02-18T07:54:13.679Z,1038.59
2017-02-18T07:55:13.669Z,1038.58
2017-02-18T07:56:13.658Z,1038.64
2017-02-18T07:57:13.649Z,1038.69
2017-02-18T07:58:13.638Z,1038.69
2017-02-18T07:59:13.628Z,1038.77
2017-02-18T08:00:13.619Z,1038.78
2017-02-18T08:01:13.607Z,1038.77
2017-02-18T08:02:13.598Z,1038.75
2017-02-18T08:03:13.585Z,1038.77
2017-02-18T08:04:13.576Z,1038.79
2017-02-18T08:05:13.566Z,1038.81
2017-02-18T08:06:13.554Z,1038.83
2017-02-18T08:07:13.543Z,1038.82
2017-02-18T08:08:13.534Z,1038.79
2017-02-18T08:09:13.524Z,1038.79
2017-02-18T08:10:13.510Z,1038.79
2017-02-18T08:11:13.500Z,1038.83
2017-02-18T08:12:13.491Z,1038.83
2017-02-18T08:13:13.482Z,1038.81
2017-02-18T08:14:13.470Z,1038.76
2017-02-18T08:15:13.461Z,1038.79
2017-02-18T08:16:13.447Z,1038.77
2017-02-18T08:17:13.441Z,1038.73
2017-02-18T08:18:13.429Z,1038.69
2017-02-18T08:19:13.421Z,1038.67
2017-02-18T08:20:13.409Z,1038.66
2017-02-18T08:21:13.399Z,1038.66
2017-02-18T08:22:13.387Z,1038.65
2017-02-18T08:23:13.376Z,1038.68
2017-02-18T08:24:13.367Z,1038.71
2017-02-18T08:25:13.354Z,1038.68
2017-02-18T08:26:13.346Z,1038.65
2017-02-18T08:27:13.335Z,1038.67
2017-02-18T08:28:13.329Z,1038.66
2017-02-18T08:29:13.314Z,1038.64
2017-02-18T08:30:13.303Z,1038.67
2017-02-18T08:31:13.294Z,1038.59
2017-02-18T08:32:13.281Z,1038.61
2017-02-18T08:33:13.273Z,1038.66
2017-02-18T08:34:13.261Z,1038.64
2017-02-18T08:35:13.253Z,1038.67
2017-02-18T08:36:13.240Z,1038.68
2017-02-18T08:37:13.230Z,1038.7
2017-02-18T08:38:13.224Z,1038.7
2017-02-18T08:39:13.213Z,1038.71
2017-02-18T08:40:13.202Z,1038.69
2017-02-18T08:41:13.188Z,1038.71
2017-02-18T08:42:13.179Z,1038.71
2017-02-18T08:43:13.171Z,1038.64
2017-02-18T08:44:13.157Z,1038.61
2017-02-18T08:45:13.148Z,1038.61
2017-02-18T08:46:13.137Z,1038.6
2017-02-18T08:47:13.130Z,1038.56
2017-02-18T08:48:13.117Z,1038.6
2017-02-18T08:49:13.109Z,1038.57
2017-02-18T08:50:13.097Z,1038.57
2017-02-18T08:51:13.088Z,1038.56
2017-02-18T08:52:13.079Z,1038.57
2017-02-18T08:53:13.067Z,1038.6
2017-02-18T08:54:13.108Z,1038.62
2017-02-18T08:55:13.047Z,1038.63
2017-02-18T08:56:13.035Z,1038.64
2017-02-18T08:57:13.026Z,1038.66
2017-02-18T08:58:13.017Z,1038.67
2017-02-18T08:59:13.003Z,1038.62
2017-02-18T09:00:12.993Z,1038.62
2017-02-18T09:01:12.987Z,1038.61
2017-02-18T09:02:12.975Z,1038.64
2017-02-18T09:03:12.965Z,1038.67
2017-02-18T09:04:12.959Z,1038.7
2017-02-18T09:05:12.944Z,1038.69
2017-02-18T09:06:12.933Z,1038.68
2017-02-18T09:07:12.923Z,1038.65
2017-02-18T09:08:12.913Z,1038.58
2017-02-18T09:09:12.904Z,1038.54
2017-02-18T09:10:12.895Z,1038.54
2017-02-18T09:11:12.882Z,1038.5
2017-02-18T09:12:12.874Z,1038.49
2017-02-18T09:13:12.864Z,1038.51
2017-02-18T09:14:12.857Z,1038.58
2017-02-18T09:15:12.846Z,1038.55
2017-02-18T09:16:12.833Z,1038.58
2017-02-18T09:17:12.823Z,1038.56
2017-02-18T09:18:12.810Z,1038.52
2017-02-18T09:19:12.803Z,1038.53
2017-02-18T09:20:12.796Z,1038.52
2017-02-18T09:21:12.781Z,1038.47
2017-02-18T09:22:12.771Z,1038.48
2017-02-18T09:23:12.764Z,1038.46
2017-02-18T09:24:12.753Z,1038.46
2017-02-18T09:25:12.744Z,1038.44
2017-02-18T09:26:12.734Z,1038.46
2017-02-18T09:27:12.723Z,1038.44
2017-02-18T09:28:12.711Z,1038.43
2017-02-18T09:29:12.704Z,1038.43
2017-02-18T09:30:12.698Z,1038.4
2017-02-18T09:31:12.682Z,1038.41
2017-02-18T09:32:12.672Z,1038.43
2017-02-18T09:33:12.667Z,1038.44
2017-02-18T09:34:12.655Z,1038.43
2017-02-18T09:35:12.646Z,1038.45
2017-02-18T09:36:12.934Z,1038.46
2017-02-18T09:37:12.627Z,1038.45
2017-02-18T09:38:12.617Z,1038.5
2017-02-18T09:39:12.607Z,1038.45
2017-02-18T09:40:12.598Z,1038.44
2017-02-18T09:41:12.888Z,1038.45
2017-02-18T09:42:12.579Z,1038.43
2017-02-18T09:43:12.566Z,1038.38
2017-02-18T09:44:12.556Z,1038.31
2017-02-18T09:45:12.546Z,1038.32
2017-02-18T09:46:12.538Z,1038.33
2017-02-18T09:47:12.530Z,1038.31
2017-02-18T09:48:12.518Z,1038.3
2017-02-18T09:49:12.508Z,1038.28
2017-02-18T09:50:12.498Z,1038.32
2017-02-18T09:51:12.489Z,1038.29
2017-02-18T09:52:12.479Z,1038.26
2017-02-18T09:53:12.469Z,1038.31
2017-02-18T09:54:12.459Z,1038.34
2017-02-18T09:55:12.450Z,1038.32
2017-02-18T09:56:12.442Z,1038.3
2017-02-18T09:57:12.433Z,1038.3
2017-02-18T09:58:12.425Z,1038.25
2017-02-18T09:59:12.412Z,1038.29
2017-02-18T10:00:12.404Z,1038.35
2017-02-18T10:01:12.393Z,1038.31
2017-02-18T10:02:12.381Z,1038.29
2017-02-18T10:03:12.376Z,1038.26
2017-02-18T10:04:12.363Z,1038.2
2017-02-18T10:05:12.355Z,1038.18
2017-02-18T10:06:12.347Z,1038.14
2017-02-18T10:07:12.332Z,1038.15
2017-02-18T10:08:12.325Z,1038.11
2017-02-18T10:09:12.315Z,1038.09
2017-02-18T10:10:12.306Z,1038.12
2017-02-18T10:11:12.297Z,1038.16
2017-02-18T10:12:12.288Z,1038.19
2017-02-18T10:13:12.275Z,1038.21
2017-02-18T10:14:12.312Z,1038.18
2017-02-18T10:15:12.261Z,1038.18
2017-02-18T10:16:12.251Z,1038.2
2017-02-18T10:17:12.243Z,1038.18
2017-02-18T10:18:12.231Z,1038.26
2017-02-18T10:19:12.224Z,1038.23
2017-02-18T10:20:12.214Z,1038.2
2017-02-18T10:21:12.202Z,1038.17
2017-02-18T10:22:12.197Z,1038.07
2017-02-18T10:23:12.186Z,1038.04
2017-02-18T10:24:12.178Z,1037.96
2017-02-18T10:25:12.168Z,1037.9
2017-02-18T10:26:12.157Z,1037.88
2017-02-18T10:27:12.147Z,1037.86
2017-02-18T10:28:12.137Z,1037.84
2017-02-18T10:29:12.129Z,1037.83
2017-02-18T10:30:12.122Z,1037.76
2017-02-18T10:31:12.113Z,1037.74
2017-02-18T10:32:12.103Z,1037.74
2017-02-18T10:33:12.093Z,1037.69
2017-02-18T10:34:12.083Z,1037.76
2017-02-18T10:35:12.077Z,1037.78
2017-02-18T10:36:12.068Z,1037.76
2017-02-18T10:37:12.059Z,1037.81
2017-02-18T10:38:12.047Z,1037.84
2017-02-18T10:39:12.041Z,1037.88
2017-02-18T10:40:12.030Z,1037.92
2017-02-18T10:41:12.020Z,1038.01
2017-02-18T10:42:12.015Z,1038.13
2017-02-18T10:43:12.003Z,1038.19
2017-02-18T10:44:11.993Z,1038.2
2017-02-18T10:45:11.987Z,1038.26
2017-02-18T10:46:11.975Z,1038.35
2017-02-18T10:47:11.991Z,1038.39
2017-02-18T10:48:11.958Z,1038.41
2017-02-18T10:49:11.950Z,1038.42
2017-02-18T10:50:11.939Z,1038.4
2017-02-18T10:51:11.931Z,1038.42
2017-02-18T10:52:11.921Z,1038.4
2017-02-18T10:53:11.914Z,1038.34
2017-02-18T10:54:11.903Z,1038.28
2017-02-18T10:55:11.893Z,1038.18
2017-02-18T10:56:11.885Z,1038.14
2017-02-18T10:57:11.875Z,1038.1
2017-02-18T10:58:11.869Z,1038.12
2017-02-18T10:59:11.856Z,1038.06
2017-02-18T11:00:11.851Z,1038.07
2017-02-18T11:01:11.841Z,1038.06
2017-02-18T11:02:11.832Z,1038.07
2017-02-18T11:03:11.820Z,1038.03
2017-02-18T11:04:11.812Z,1038.01
2017-02-18T11:05:11.801Z,1037.95
2017-02-18T11:06:11.800Z,1037.87
2017-02-18T11:07:11.785Z,1037.83
2017-02-18T11:08:11.776Z,1037.79
2017-02-18T11:09:11.765Z,1037.81
2017-02-18T11:10:11.756Z,1037.77
2017-02-18T11:11:11.750Z,1037.73
2017-02-18T11:12:11.738Z,1037.69
2017-02-18T11:13:11.732Z,1037.67
2017-02-18T11:14:11.721Z,1037.66
2017-02-18T11:15:11.710Z,1037.62
2017-02-18T11:16:11.705Z,1037.61
2017-02-18T11:17:11.694Z,1037.57
2017-02-18T11:18:11.686Z,1037.58
2017-02-18T11:19:11.677Z,1037.54
2017-02-18T11:20:11.669Z,1037.54
2017-02-18T11:21:11.656Z,1037.5
2017-02-18T11:22:11.651Z,1037.53
2017-02-18T11:23:11.641Z,1037.54
2017-02-18T11:24:11.634Z,1037.6
2017-02-18T11:25:11.624Z,1037.57
2017-02-18T11:26:11.614Z,1037.59
2017-02-18T11:27:11.606Z,1037.62
2017-02-18T11:28:11.597Z,1037.63
2017-02-18T11:29:11.590Z,1037.73
2017-02-18T11:30:11.579Z,1037.76
2017-02-18T11:31:11.573Z,1037.8
2017-02-18T11:32:11.561Z,1037.84
2017-02-18T11:33:11.554Z,1037.82
2017-02-18T11:34:11.547Z,1037.83
2017-02-18T11:35:11.537Z,1037.84
2017-02-18T11:36:11.527Z,1037.88
2017-02-18T11:37:11.518Z,1037.88
2017-02-18T11:38:11.512Z,1037.95
2017-02-18T11:39:11.500Z,1037.94
2017-02-18T11:40:11.492Z,1037.91
2017-02-18T11:41:11.484Z,1037.9
2017-02-18T11:42:11.477Z,1037.93
2017-02-18T11:43:11.467Z,1037.96
2017-02-18T11:44:11.458Z,1037.94
2017-02-18T11:45:11.448Z,1037.96
2017-02-18T11:46:11.444Z,1037.98
2017-02-18T11:47:11.433Z,1038.01
2017-02-18T11:48:11.423Z,1038.01
2017-02-18T11:49:11.413Z,1038.01
2017-02-18T11:50:11.407Z,1038.03
2017-02-18T11:51:11.394Z,1038.03
2017-02-18T11:52:11.386Z,1038.03
2017-02-18T11:53:11.379Z,1038.04
2017-02-18T11:54:11.368Z,1038.08
2017-02-18T11:55:11.365Z,1038.09
2017-02-18T11:56:11.353Z,1038.1
2017-02-18T11:57:11.344Z,1038.1
2017-02-18T11:58:11.331Z,1038.1
2017-02-18T11:59:11.327Z,1038.16
2017-02-18T12:00:11.314Z,1038.17
2017-02-18T12:01:11.307Z,1038.22
2017-02-18T12:02:11.296Z,1038.26
2017-02-18T12:03:11.286Z,1038.26
2017-02-18T12:04:11.280Z,1038.27
2017-02-18T12:05:11.269Z,1038.31
2017-02-18T12:06:11.258Z,1038.35
2017-02-18T12:07:11.252Z,1038.4
2017-02-18T12:08:11.242Z,1038.47